sensor_id;sensor_type;location;lat;lon;timestamp;temperature;humidity
16301;DHT22;8258;51.020;4.248;2022-08-04T00:02:32;22.30;99.90
16301;DHT22;8258;51.020;4.248;2022-08-04T00:05:04;22.30;99.90
16301;DHT22;8258;51.020;4.248;2022-08-04T00:07:36;22.30;99.90
16301;DHT22;8258;51.020;4.248;2022-08-04T00:10:06;22.30;99.90
16301;DHT22;8258;51.020;4.248;2022-08-04T00:12:37;22.30;99.90
16301;DHT22;8258;51.020;4.248;2022-08-04T00:15:09;22.20;99.90
16301;DHT22;8258;51.020;4.248;2022-08-04T00:17:39;22.20;99.90
16301;DHT22;8258;51.020;4.248;2022-08-04T00:20:08;22.10;99.90
16301;DHT22;8258;51.020;4.248;2022-08-04T00:22:39;22.10;99.90
16301;DHT22;8258;51.020;4.248;2022-08-04T00:25:08;22.20;99.90
16301;DHT22;8258;51.020;4.248;2022-08-04T00:27:37;22.20;99.90
16301;DHT22;8258;51.020;4.248;2022-08-04T00:30:05;22.20;99.90
16301;DHT22;8258;51.020;4.248;2022-08-04T00:32:33;22.10;99.90
16301;DHT22;8258;51.020;4.248;2022-08-04T00:35:00;22.10;99.90
16301;DHT22;8258;51.020;4.248;2022-08-04T00:37:28;22.00;99.90
16301;DHT22;8258;51.020;4.248;2022-08-04T00:39:55;21.90;99.90
16301;DHT22;8258;51.020;4.248;2022-08-04T00:42:33;21.80;99.90
16301;DHT22;8258;51.020;4.248;2022-08-04T00:45:24;21.70;99.90
16301;DHT22;8258;51.020;4.248;2022-08-04T00:48:03;21.70;99.90
16301;DHT22;8258;51.020;4.248;2022-08-04T00:50:43;21.60;99.90
16301;DHT22;8258;51.020;4.248;2022-08-04T00:53:16;21.70;99.90
16301;DHT22;8258;51.020;4.248;2022-08-04T00:58:57;21.60;99.90
16301;DHT22;8258;51.020;4.248;2022-08-04T01:01:39;21.60;99.90
16301;DHT22;8258;51.020;4.248;2022-08-04T01:04:15;21.60;99.90
16301;DHT22;8258;51.020;4.248;2022-08-04T01:06:59;21.60;99.90
16301;DHT22;8258;51.020;4.248;2022-08-04T01:09:40;21.50;99.90
16301;DHT22;8258;51.020;4.248;2022-08-04T01:12:28;21.50;99.90
16301;DHT22;8258;51.020;4.248;2022-08-04T01:15:04;21.50;99.90
16301;DHT22;8258;51.020;4.248;2022-08-04T01:17:53;21.50;99.90
16301;DHT22;8258;51.020;4.248;2022-08-04T01:20:25;21.50;99.90
16301;DHT22;8258;51.020;4.248;2022-08-04T01:23:22;21.50;99.90
16301;DHT22;8258;51.020;4.248;2022-08-04T01:26:17;21.50;99.90
16301;DHT22;8258;51.020;4.248;2022-08-04T01:29:06;21.50;99.90
16301;DHT22;8258;51.020;4.248;2022-08-04T01:31:45;21.40;99.90
16301;DHT22;8258;51.020;4.248;2022-08-04T01:34:16;21.30;99.90
16301;DHT22;8258;51.020;4.248;2022-08-04T01:36:46;21.20;99.90
16301;DHT22;8258;51.020;4.248;2022-08-04T01:39:19;21.10;99.90
16301;DHT22;8258;51.020;4.248;2022-08-04T01:42:05;21.00;99.90
16301;DHT22;8258;51.020;4.248;2022-08-04T01:44:35;21.10;99.90
16301;DHT22;8258;51.020;4.248;2022-08-04T01:47:02;21.10;99.90
16301;DHT22;8258;51.020;4.248;2022-08-04T01:49:31;21.10;99.90
16301;DHT22;8258;51.020;4.248;2022-08-04T01:51:59;21.10;99.90
16301;DHT22;8258;51.020;4.248;2022-08-04T01:54:26;21.10;99.90
16301;DHT22;8258;51.020;4.248;2022-08-04T01:56:54;21.10;99.90
16301;DHT22;8258;51.020;4.248;2022-08-04T01:59:21;21.00;99.90
16301;DHT22;8258;51.020;4.248;2022-08-04T02:01:50;21.00;99.90
16301;DHT22;8258;51.020;4.248;2022-08-04T02:04:19;20.90;99.90
16301;DHT22;8258;51.020;4.248;2022-08-04T02:07:01;21.00;99.90
16301;DHT22;8258;51.020;4.248;2022-08-04T02:09:36;20.90;99.90
16301;DHT22;8258;51.020;4.248;2022-08-04T02:12:06;20.90;99.90
16301;DHT22;8258;51.020;4.248;2022-08-04T02:14:43;20.90;99.90
16301;DHT22;8258;51.020;4.248;2022-08-04T02:17:13;20.80;99.90
16301;DHT22;8258;51.020;4.248;2022-08-04T02:19:57;20.90;99.90
16301;DHT22;8258;51.020;4.248;2022-08-04T02:22:27;20.80;99.90
16301;DHT22;8258;51.020;4.248;2022-08-04T02:24:57;20.80;99.90
16301;DHT22;8258;51.020;4.248;2022-08-04T02:27:39;20.80;99.90
16301;DHT22;8258;51.020;4.248;2022-08-04T02:30:13;20.80;99.90
16301;DHT22;8258;51.020;4.248;2022-08-04T02:32:42;20.80;99.90
16301;DHT22;8258;51.020;4.248;2022-08-04T02:35:14;20.80;99.90
16301;DHT22;8258;51.020;4.248;2022-08-04T02:37:46;20.70;99.90
16301;DHT22;8258;51.020;4.248;2022-08-04T02:40:19;20.70;99.90
16301;DHT22;8258;51.020;4.248;2022-08-04T02:42:46;20.80;99.90
16301;DHT22;8258;51.020;4.248;2022-08-04T02:45:17;20.70;99.90
16301;DHT22;8258;51.020;4.248;2022-08-04T02:47:47;20.60;99.90
16301;DHT22;8258;51.020;4.248;2022-08-04T02:50:17;20.60;99.90
16301;DHT22;8258;51.020;4.248;2022-08-04T02:52:44;20.60;99.90
16301;DHT22;8258;51.020;4.248;2022-08-04T02:55:13;20.50;99.90
16301;DHT22;8258;51.020;4.248;2022-08-04T02:57:44;20.50;99.90
16301;DHT22;8258;51.020;4.248;2022-08-04T03:00:15;20.50;99.90
16301;DHT22;8258;51.020;4.248;2022-08-04T03:02:54;20.50;99.90
16301;DHT22;8258;51.020;4.248;2022-08-04T03:05:30;20.50;99.90
16301;DHT22;8258;51.020;4.248;2022-08-04T03:08:29;20.50;99.90
16301;DHT22;8258;51.020;4.248;2022-08-04T03:11:09;20.50;99.90
16301;DHT22;8258;51.020;4.248;2022-08-04T03:14:21;20.40;99.90
16301;DHT22;8258;51.020;4.248;2022-08-04T03:23:21;20.30;99.90
16301;DHT22;8258;51.020;4.248;2022-08-04T03:26:16;20.30;99.90
16301;DHT22;8258;51.020;4.248;2022-08-04T03:32:29;20.20;99.90
16301;DHT22;8258;51.020;4.248;2022-08-04T03:35:16;20.10;99.90
16301;DHT22;8258;51.020;4.248;2022-08-04T03:38:18;20.10;99.90
16301;DHT22;8258;51.020;4.248;2022-08-04T03:41:05;20.10;99.90
16301;DHT22;8258;51.020;4.248;2022-08-04T03:44:05;20.00;99.90
16301;DHT22;8258;51.020;4.248;2022-08-04T03:49:56;20.00;99.90
16301;DHT22;8258;51.020;4.248;2022-08-04T03:52:46;20.00;99.90
16301;DHT22;8258;51.020;4.248;2022-08-04T03:55:54;20.00;99.90
16301;DHT22;8258;51.020;4.248;2022-08-04T03:58:51;19.90;99.90
16301;DHT22;8258;51.020;4.248;2022-08-04T04:01:41;19.80;99.90
16301;DHT22;8258;51.020;4.248;2022-08-04T04:04:44;19.80;99.90
16301;DHT22;8258;51.020;4.248;2022-08-04T04:07:49;19.90;99.90
16301;DHT22;8258;51.020;4.248;2022-08-04T04:10:38;20.10;99.90
16301;DHT22;8258;51.020;4.248;2022-08-04T04:13:33;20.10;99.90
16301;DHT22;8258;51.020;4.248;2022-08-04T04:16:16;20.10;99.90
16301;DHT22;8258;51.020;4.248;2022-08-04T04:19:04;20.10;99.90
16301;DHT22;8258;51.020;4.248;2022-08-04T04:22:02;20.00;99.90
16301;DHT22;8258;51.020;4.248;2022-08-04T04:24:52;20.00;99.90
16301;DHT22;8258;51.020;4.248;2022-08-04T04:27:31;19.90;99.90
16301;DHT22;8258;51.020;4.248;2022-08-04T04:30:03;19.80;99.90
16301;DHT22;8258;51.020;4.248;2022-08-04T04:32:51;19.80;99.90
16301;DHT22;8258;51.020;4.248;2022-08-04T04:35:32;19.90;99.90
16301;DHT22;8258;51.020;4.248;2022-08-04T04:38:20;19.90;99.90
16301;DHT22;8258;51.020;4.248;2022-08-04T04:41:03;20.00;99.90
16301;DHT22;8258;51.020;4.248;2022-08-04T04:46:36;20.10;99.90
16301;DHT22;8258;51.020;4.248;2022-08-04T04:49:10;20.20;99.90
16301;DHT22;8258;51.020;4.248;2022-08-04T04:51:43;20.20;99.90
16301;DHT22;8258;51.020;4.248;2022-08-04T04:54:22;20.20;99.90
16301;DHT22;8258;51.020;4.248;2022-08-04T04:56:59;20.30;99.90
16301;DHT22;8258;51.020;4.248;2022-08-04T04:59:34;20.30;99.90
16301;DHT22;8258;51.020;4.248;2022-08-04T05:05:10;20.40;99.90
16301;DHT22;8258;51.020;4.248;2022-08-04T05:08:03;20.40;99.90
16301;DHT22;8258;51.020;4.248;2022-08-04T05:10:45;20.40;99.90
16301;DHT22;8258;51.020;4.248;2022-08-04T05:13:27;20.50;99.90
16301;DHT22;8258;51.020;4.248;2022-08-04T05:16:02;20.50;99.90
16301;DHT22;8258;51.020;4.248;2022-08-04T05:18:33;20.40;99.90
16301;DHT22;8258;51.020;4.248;2022-08-04T05:21:13;20.50;99.90
16301;DHT22;8258;51.020;4.248;2022-08-04T05:23:48;20.50;99.90
16301;DHT22;8258;51.020;4.248;2022-08-04T05:26:17;20.50;99.90
16301;DHT22;8258;51.020;4.248;2022-08-04T05:28:53;20.50;99.90
16301;DHT22;8258;51.020;4.248;2022-08-04T05:31:24;20.60;99.90
16301;DHT22;8258;51.020;4.248;2022-08-04T05:33:54;20.70;99.90
16301;DHT22;8258;51.020;4.248;2022-08-04T05:36:29;20.70;99.90
16301;DHT22;8258;51.020;4.248;2022-08-04T05:38:59;20.70;99.90
16301;DHT22;8258;51.020;4.248;2022-08-04T05:41:27;20.90;99.90
16301;DHT22;8258;51.020;4.248;2022-08-04T05:43:56;20.90;99.90
16301;DHT22;8258;51.020;4.248;2022-08-04T05:46:24;20.90;99.90
16301;DHT22;8258;51.020;4.248;2022-08-04T05:48:52;21.00;99.90
16301;DHT22;8258;51.020;4.248;2022-08-04T05:51:19;21.10;99.90
16301;DHT22;8258;51.020;4.248;2022-08-04T05:53:47;21.10;99.90
16301;DHT22;8258;51.020;4.248;2022-08-04T05:56:15;21.10;99.90
16301;DHT22;8258;51.020;4.248;2022-08-04T05:58:43;21.20;99.90
16301;DHT22;8258;51.020;4.248;2022-08-04T06:01:13;21.30;99.90
16301;DHT22;8258;51.020;4.248;2022-08-04T06:03:43;21.60;99.90
16301;DHT22;8258;51.020;4.248;2022-08-04T06:06:12;21.80;99.90
16301;DHT22;8258;51.020;4.248;2022-08-04T06:08:39;21.80;99.90
16301;DHT22;8258;51.020;4.248;2022-08-04T06:11:07;21.80;99.90
16301;DHT22;8258;51.020;4.248;2022-08-04T06:13:39;22.00;99.90
16301;DHT22;8258;51.020;4.248;2022-08-04T06:16:08;22.10;99.90
16301;DHT22;8258;51.020;4.248;2022-08-04T06:18:38;22.10;99.90
16301;DHT22;8258;51.020;4.248;2022-08-04T06:21:07;22.00;99.90
16301;DHT22;8258;51.020;4.248;2022-08-04T06:23:38;21.90;99.90
16301;DHT22;8258;51.020;4.248;2022-08-04T06:26:06;21.90;99.90
16301;DHT22;8258;51.020;4.248;2022-08-04T06:28:35;22.00;99.90
16301;DHT22;8258;51.020;4.248;2022-08-04T06:31:03;22.10;99.90
16301;DHT22;8258;51.020;4.248;2022-08-04T06:33:33;22.20;99.90
16301;DHT22;8258;51.020;4.248;2022-08-04T06:36:05;22.20;99.90
16301;DHT22;8258;51.020;4.248;2022-08-04T06:38:33;22.20;99.90
16301;DHT22;8258;51.020;4.248;2022-08-04T06:41:01;22.30;99.90
16301;DHT22;8258;51.020;4.248;2022-08-04T06:43:34;22.40;99.90
16301;DHT22;8258;51.020;4.248;2022-08-04T06:46:03;22.50;99.90
16301;DHT22;8258;51.020;4.248;2022-08-04T06:48:31;22.50;99.90
16301;DHT22;8258;51.020;4.248;2022-08-04T06:50:59;22.60;99.90
16301;DHT22;8258;51.020;4.248;2022-08-04T06:53:27;22.80;99.90
16301;DHT22;8258;51.020;4.248;2022-08-04T06:55:56;22.90;99.90
16301;DHT22;8258;51.020;4.248;2022-08-04T06:58:24;23.30;99.90
16301;DHT22;8258;51.020;4.248;2022-08-04T07:00:51;23.80;99.90
16301;DHT22;8258;51.020;4.248;2022-08-04T07:03:20;24.20;99.90
16301;DHT22;8258;51.020;4.248;2022-08-04T07:05:48;24.20;99.90
16301;DHT22;8258;51.020;4.248;2022-08-04T07:08:17;24.60;99.90
16301;DHT22;8258;51.020;4.248;2022-08-04T07:10:45;25.10;99.90
16301;DHT22;8258;51.020;4.248;2022-08-04T07:13:13;25.90;99.90
16301;DHT22;8258;51.020;4.248;2022-08-04T07:15:42;26.40;99.90
16301;DHT22;8258;51.020;4.248;2022-08-04T07:18:10;26.90;99.90
16301;DHT22;8258;51.020;4.248;2022-08-04T07:20:40;27.30;99.90
16301;DHT22;8258;51.020;4.248;2022-08-04T07:23:07;26.50;99.90
16301;DHT22;8258;51.020;4.248;2022-08-04T07:25:36;25.50;99.90
16301;DHT22;8258;51.020;4.248;2022-08-04T07:28:04;25.10;99.90
16301;DHT22;8258;51.020;4.248;2022-08-04T07:30:32;24.80;99.90
16301;DHT22;8258;51.020;4.248;2022-08-04T07:33:00;23.90;99.90
16301;DHT22;8258;51.020;4.248;2022-08-04T07:35:28;23.70;99.90
16301;DHT22;8258;51.020;4.248;2022-08-04T07:37:55;23.70;99.90
16301;DHT22;8258;51.020;4.248;2022-08-04T07:40:23;23.50;99.90
16301;DHT22;8258;51.020;4.248;2022-08-04T07:42:50;23.40;99.90
16301;DHT22;8258;51.020;4.248;2022-08-04T07:45:19;23.40;99.90
16301;DHT22;8258;51.020;4.248;2022-08-04T07:47:48;23.50;99.90
16301;DHT22;8258;51.020;4.248;2022-08-04T07:50:15;23.50;99.90
16301;DHT22;8258;51.020;4.248;2022-08-04T07:52:43;23.50;99.90
16301;DHT22;8258;51.020;4.248;2022-08-04T07:55:12;23.50;99.90
16301;DHT22;8258;51.020;4.248;2022-08-04T07:57:39;23.40;99.90
16301;DHT22;8258;51.020;4.248;2022-08-04T08:00:07;23.50;99.90
16301;DHT22;8258;51.020;4.248;2022-08-04T08:02:36;23.50;99.90
16301;DHT22;8258;51.020;4.248;2022-08-04T08:05:05;23.50;99.90
16301;DHT22;8258;51.020;4.248;2022-08-04T08:07:33;23.50;99.90
16301;DHT22;8258;51.020;4.248;2022-08-04T08:10:00;23.40;99.90
16301;DHT22;8258;51.020;4.248;2022-08-04T08:12:28;23.40;99.90
16301;DHT22;8258;51.020;4.248;2022-08-04T08:14:55;23.40;99.90
16301;DHT22;8258;51.020;4.248;2022-08-04T08:17:22;23.30;99.90
16301;DHT22;8258;51.020;4.248;2022-08-04T08:19:50;23.00;99.90
16301;DHT22;8258;51.020;4.248;2022-08-04T08:22:17;23.10;99.90
16301;DHT22;8258;51.020;4.248;2022-08-04T08:24:44;23.00;99.90
16301;DHT22;8258;51.020;4.248;2022-08-04T08:27:11;22.90;99.90
16301;DHT22;8258;51.020;4.248;2022-08-04T08:29:39;22.60;99.90
16301;DHT22;8258;51.020;4.248;2022-08-04T08:32:09;22.30;99.90
16301;DHT22;8258;51.020;4.248;2022-08-04T08:34:39;22.00;99.90
16301;DHT22;8258;51.020;4.248;2022-08-04T08:37:15;22.00;99.90
16301;DHT22;8258;51.020;4.248;2022-08-04T08:39:48;21.90;99.90
16301;DHT22;8258;51.020;4.248;2022-08-04T08:42:41;21.90;99.90
16301;DHT22;8258;51.020;4.248;2022-08-04T08:45:37;22.00;99.90
16301;DHT22;8258;51.020;4.248;2022-08-04T08:51:46;22.10;99.90
16301;DHT22;8258;51.020;4.248;2022-08-04T08:57:32;22.40;99.90
16301;DHT22;8258;51.020;4.248;2022-08-04T09:00:08;22.40;99.90
16301;DHT22;8258;51.020;4.248;2022-08-04T09:03:16;22.40;99.90
16301;DHT22;8258;51.020;4.248;2022-08-04T09:06:27;22.30;99.90
16301;DHT22;8258;51.020;4.248;2022-08-04T09:09:17;22.20;99.90
16301;DHT22;8258;51.020;4.248;2022-08-04T09:11:53;22.10;99.90
16301;DHT22;8258;51.020;4.248;2022-08-04T09:14:28;22.00;99.90
16301;DHT22;8258;51.020;4.248;2022-08-04T09:17:02;21.90;99.90
16301;DHT22;8258;51.020;4.248;2022-08-04T09:19:34;21.80;99.90
16301;DHT22;8258;51.020;4.248;2022-08-04T09:22:05;21.80;99.90
16301;DHT22;8258;51.020;4.248;2022-08-04T09:24:47;22.00;99.90
16301;DHT22;8258;51.020;4.248;2022-08-04T09:27:18;22.00;99.90
16301;DHT22;8258;51.020;4.248;2022-08-04T09:29:57;22.10;99.90
16301;DHT22;8258;51.020;4.248;2022-08-04T09:32:33;22.00;99.90
16301;DHT22;8258;51.020;4.248;2022-08-04T09:35:15;22.20;99.90
16301;DHT22;8258;51.020;4.248;2022-08-04T09:37:47;22.20;99.90
16301;DHT22;8258;51.020;4.248;2022-08-04T09:40:22;22.30;99.90
16301;DHT22;8258;51.020;4.248;2022-08-04T09:43:01;22.30;99.90
16301;DHT22;8258;51.020;4.248;2022-08-04T09:45:37;22.50;99.90
16301;DHT22;8258;51.020;4.248;2022-08-04T09:48:10;22.60;99.90
16301;DHT22;8258;51.020;4.248;2022-08-04T09:50:41;22.70;99.90
16301;DHT22;8258;51.020;4.248;2022-08-04T09:53:26;22.80;99.90
16301;DHT22;8258;51.020;4.248;2022-08-04T09:56:02;22.70;99.90
16301;DHT22;8258;51.020;4.248;2022-08-04T09:58:39;22.80;99.90
16301;DHT22;8258;51.020;4.248;2022-08-04T10:01:15;22.70;99.90
16301;DHT22;8258;51.020;4.248;2022-08-04T10:03:46;22.70;99.90
16301;DHT22;8258;51.020;4.248;2022-08-04T10:06:41;22.60;99.90
16301;DHT22;8258;51.020;4.248;2022-08-04T10:09:32;22.90;99.90
16301;DHT22;8258;51.020;4.248;2022-08-04T10:12:12;23.20;99.90
16301;DHT22;8258;51.020;4.248;2022-08-04T10:14:50;23.70;99.90
16301;DHT22;8258;51.020;4.248;2022-08-04T10:17:38;24.50;99.90
16301;DHT22;8258;51.020;4.248;2022-08-04T10:20:13;26.70;99.90
16301;DHT22;8258;51.020;4.248;2022-08-04T10:22:52;28.80;99.90
16301;DHT22;8258;51.020;4.248;2022-08-04T10:25:33;29.00;99.90
16301;DHT22;8258;51.020;4.248;2022-08-04T10:28:05;28.40;99.90
16301;DHT22;8258;51.020;4.248;2022-08-04T10:30:38;28.90;99.90
16301;DHT22;8258;51.020;4.248;2022-08-04T10:33:11;30.40;99.90
16301;DHT22;8258;51.020;4.248;2022-08-04T10:35:47;32.10;99.90
16301;DHT22;8258;51.020;4.248;2022-08-04T10:38:20;32.30;99.90
16301;DHT22;8258;51.020;4.248;2022-08-04T10:40:53;32.50;99.90
16301;DHT22;8258;51.020;4.248;2022-08-04T10:43:36;31.70;99.90
16301;DHT22;8258;51.020;4.248;2022-08-04T10:46:09;31.90;99.90
16301;DHT22;8258;51.020;4.248;2022-08-04T10:48:43;32.30;99.90
16301;DHT22;8258;51.020;4.248;2022-08-04T10:51:20;32.70;99.90
16301;DHT22;8258;51.020;4.248;2022-08-04T10:53:52;32.40;99.90
16301;DHT22;8258;51.020;4.248;2022-08-04T10:56:28;31.60;99.90
16301;DHT22;8258;51.020;4.248;2022-08-04T10:59:01;31.50;99.90
16301;DHT22;8258;51.020;4.248;2022-08-04T11:01:32;32.00;99.90
16301;DHT22;8258;51.020;4.248;2022-08-04T11:04:07;31.20;99.90
16301;DHT22;8258;51.020;4.248;2022-08-04T11:06:36;31.00;99.90
16301;DHT22;8258;51.020;4.248;2022-08-04T11:09:04;30.40;99.90
16301;DHT22;8258;51.020;4.248;2022-08-04T11:11:36;29.80;99.90
16301;DHT22;8258;51.020;4.248;2022-08-04T11:14:07;29.50;99.90
16301;DHT22;8258;51.020;4.248;2022-08-04T11:16:40;31.30;99.90
16301;DHT22;8258;51.020;4.248;2022-08-04T11:19:23;32.70;99.90
16301;DHT22;8258;51.020;4.248;2022-08-04T11:21:55;33.40;99.90
16301;DHT22;8258;51.020;4.248;2022-08-04T11:24:27;34.40;99.90
16301;DHT22;8258;51.020;4.248;2022-08-04T11:26:59;35.20;99.90
16301;DHT22;8258;51.020;4.248;2022-08-04T11:29:34;35.10;99.90
16301;DHT22;8258;51.020;4.248;2022-08-04T11:32:12;34.80;99.90
16301;DHT22;8258;51.020;4.248;2022-08-04T11:34:48;33.70;99.90
16301;DHT22;8258;51.020;4.248;2022-08-04T11:37:22;33.50;99.90
16301;DHT22;8258;51.020;4.248;2022-08-04T11:39:52;32.50;99.90
16301;DHT22;8258;51.020;4.248;2022-08-04T11:42:25;33.70;99.90
16301;DHT22;8258;51.020;4.248;2022-08-04T11:44:59;34.70;99.60
16301;DHT22;8258;51.020;4.248;2022-08-04T11:47:31;34.10;99.90
16301;DHT22;8258;51.020;4.248;2022-08-04T11:50:07;33.60;99.90
16301;DHT22;8258;51.020;4.248;2022-08-04T11:52:38;33.40;99.90
16301;DHT22;8258;51.020;4.248;2022-08-04T11:55:08;34.00;99.90
16301;DHT22;8258;51.020;4.248;2022-08-04T11:57:36;34.30;99.90
16301;DHT22;8258;51.020;4.248;2022-08-04T12:00:06;35.10;99.10
16301;DHT22;8258;51.020;4.248;2022-08-04T12:02:55;34.60;98.50
16301;DHT22;8258;51.020;4.248;2022-08-04T12:05:30;33.60;99.90
16301;DHT22;8258;51.020;4.248;2022-08-04T12:08:06;34.70;99.90
16301;DHT22;8258;51.020;4.248;2022-08-04T12:10:44;35.20;99.30
16301;DHT22;8258;51.020;4.248;2022-08-04T12:13:23;35.60;97.70
16301;DHT22;8258;51.020;4.248;2022-08-04T12:16:00;35.40;97.30
16301;DHT22;8258;51.020;4.248;2022-08-04T12:18:33;35.50;97.50
16301;DHT22;8258;51.020;4.248;2022-08-04T12:21:10;35.30;97.90
16301;DHT22;8258;51.020;4.248;2022-08-04T12:23:39;36.10;96.80
16301;DHT22;8258;51.020;4.248;2022-08-04T12:26:08;36.30;95.60
16301;DHT22;8258;51.020;4.248;2022-08-04T12:28:38;34.80;96.90
16301;DHT22;8258;51.020;4.248;2022-08-04T12:31:11;34.50;97.80
16301;DHT22;8258;51.020;4.248;2022-08-04T12:33:44;34.70;98.20
16301;DHT22;8258;51.020;4.248;2022-08-04T12:36:19;35.60;97.40
16301;DHT22;8258;51.020;4.248;2022-08-04T12:38:49;36.80;94.80
16301;DHT22;8258;51.020;4.248;2022-08-04T12:41:22;36.30;94.50
16301;DHT22;8258;51.020;4.248;2022-08-04T12:43:50;35.30;96.00
16301;DHT22;8258;51.020;4.248;2022-08-04T12:46:21;35.40;95.90
16301;DHT22;8258;51.020;4.248;2022-08-04T12:48:48;34.90;96.60
16301;DHT22;8258;51.020;4.248;2022-08-04T12:51:18;34.70;96.50
16301;DHT22;8258;51.020;4.248;2022-08-04T12:53:46;33.60;97.60
16301;DHT22;8258;51.020;4.248;2022-08-04T12:56:15;33.40;98.90
16301;DHT22;8258;51.020;4.248;2022-08-04T12:58:44;33.10;99.00
16301;DHT22;8258;51.020;4.248;2022-08-04T13:01:16;34.70;97.00
16301;DHT22;8258;51.020;4.248;2022-08-04T13:03:47;36.50;94.80
16301;DHT22;8258;51.020;4.248;2022-08-04T13:06:23;36.80;93.00
16301;DHT22;8258;51.020;4.248;2022-08-04T13:08:50;36.60;93.40
16301;DHT22;8258;51.020;4.248;2022-08-04T13:11:20;36.60;93.90
16301;DHT22;8258;51.020;4.248;2022-08-04T13:13:52;36.50;92.60
16301;DHT22;8258;51.020;4.248;2022-08-04T13:16:28;35.40;93.40
16301;DHT22;8258;51.020;4.248;2022-08-04T13:18:55;35.20;94.10
16301;DHT22;8258;51.020;4.248;2022-08-04T13:21:26;36.40;94.00
16301;DHT22;8258;51.020;4.248;2022-08-04T13:23:57;38.10;91.60
16301;DHT22;8258;51.020;4.248;2022-08-04T13:26:28;38.30;90.40
16301;DHT22;8258;51.020;4.248;2022-08-04T13:29:00;38.80;90.30
16301;DHT22;8258;51.020;4.248;2022-08-04T13:31:28;39.80;85.90
16301;DHT22;8258;51.020;4.248;2022-08-04T13:34:02;39.10;85.70
16301;DHT22;8258;51.020;4.248;2022-08-04T13:36:31;39.50;82.90
16301;DHT22;8258;51.020;4.248;2022-08-04T13:39:15;39.70;82.20
16301;DHT22;8258;51.020;4.248;2022-08-04T13:41:45;40.50;80.50
16301;DHT22;8258;51.020;4.248;2022-08-04T13:44:18;40.80;78.90
16301;DHT22;8258;51.020;4.248;2022-08-04T13:46:49;40.10;77.30
16301;DHT22;8258;51.020;4.248;2022-08-04T13:49:17;39.30;77.90
16301;DHT22;8258;51.020;4.248;2022-08-04T13:51:51;39.40;79.90
16301;DHT22;8258;51.020;4.248;2022-08-04T13:54:19;38.80;79.80
16301;DHT22;8258;51.020;4.248;2022-08-04T13:56:48;37.90;81.40
16301;DHT22;8258;51.020;4.248;2022-08-04T13:59:17;38.00;81.90
16301;DHT22;8258;51.020;4.248;2022-08-04T14:01:54;37.00;84.30
16301;DHT22;8258;51.020;4.248;2022-08-04T14:04:24;35.90;84.70
16301;DHT22;8258;51.020;4.248;2022-08-04T14:07:00;34.70;87.60
16301;DHT22;8258;51.020;4.248;2022-08-04T14:09:31;34.00;90.10
16301;DHT22;8258;51.020;4.248;2022-08-04T14:12:05;34.00;91.30
16301;DHT22;8258;51.020;4.248;2022-08-04T14:14:34;33.70;90.50
16301;DHT22;8258;51.020;4.248;2022-08-04T14:17:03;33.50;90.90
16301;DHT22;8258;51.020;4.248;2022-08-04T14:19:50;33.10;91.20
16301;DHT22;8258;51.020;4.248;2022-08-04T14:22:35;34.40;90.40
16301;DHT22;8258;51.020;4.248;2022-08-04T14:25:07;34.90;90.00
16301;DHT22;8258;51.020;4.248;2022-08-04T14:27:44;36.30;86.40
16301;DHT22;8258;51.020;4.248;2022-08-04T14:30:23;37.50;83.20
16301;DHT22;8258;51.020;4.248;2022-08-04T14:32:58;37.00;82.00
16301;DHT22;8258;51.020;4.248;2022-08-04T14:35:26;36.00;84.80
16301;DHT22;8258;51.020;4.248;2022-08-04T14:37:56;34.80;87.80
16301;DHT22;8258;51.020;4.248;2022-08-04T14:40:25;34.20;88.60
16301;DHT22;8258;51.020;4.248;2022-08-04T14:42:52;34.00;89.30
16301;DHT22;8258;51.020;4.248;2022-08-04T14:45:27;34.20;88.60
16301;DHT22;8258;51.020;4.248;2022-08-04T14:47:54;34.10;89.20
16301;DHT22;8258;51.020;4.248;2022-08-04T14:50:32;33.30;91.00
16301;DHT22;8258;51.020;4.248;2022-08-04T14:53:04;33.20;91.90
16301;DHT22;8258;51.020;4.248;2022-08-04T14:55:31;33.70;91.20
16301;DHT22;8258;51.020;4.248;2022-08-04T14:57:58;34.30;90.30
16301;DHT22;8258;51.020;4.248;2022-08-04T15:00:28;34.30;90.30
16301;DHT22;8258;51.020;4.248;2022-08-04T15:03:00;34.80;89.60
16301;DHT22;8258;51.020;4.248;2022-08-04T15:05:29;35.40;87.90
16301;DHT22;8258;51.020;4.248;2022-08-04T15:07:56;34.00;90.00
16301;DHT22;8258;51.020;4.248;2022-08-04T15:10:25;33.10;91.70
16301;DHT22;8258;51.020;4.248;2022-08-04T15:12:52;32.40;92.50
16301;DHT22;8258;51.020;4.248;2022-08-04T15:15:20;31.80;93.40
16301;DHT22;8258;51.020;4.248;2022-08-04T15:17:48;31.30;94.50
16301;DHT22;8258;51.020;4.248;2022-08-04T15:20:15;31.40;95.30
16301;DHT22;8258;51.020;4.248;2022-08-04T15:22:42;31.80;94.50
16301;DHT22;8258;51.020;4.248;2022-08-04T15:25:09;32.20;94.40
16301;DHT22;8258;51.020;4.248;2022-08-04T15:27:38;33.20;93.10
16301;DHT22;8258;51.020;4.248;2022-08-04T15:30:07;34.30;91.60
16301;DHT22;8258;51.020;4.248;2022-08-04T15:32:37;35.00;90.80
16301;DHT22;8258;51.020;4.248;2022-08-04T15:35:08;35.30;90.00
16301;DHT22;8258;51.020;4.248;2022-08-04T15:37:45;35.40;90.10
16301;DHT22;8258;51.020;4.248;2022-08-04T15:40:18;34.50;90.20
16301;DHT22;8258;51.020;4.248;2022-08-04T15:43:00;33.50;91.20
16301;DHT22;8258;51.020;4.248;2022-08-04T15:45:32;32.60;92.10
16301;DHT22;8258;51.020;4.248;2022-08-04T15:48:30;32.70;92.40
16301;DHT22;8258;51.020;4.248;2022-08-04T15:51:15;33.50;91.60
16301;DHT22;8258;51.020;4.248;2022-08-04T15:54:20;34.00;91.00
16301;DHT22;8258;51.020;4.248;2022-08-04T15:56:49;33.80;91.50
16301;DHT22;8258;51.020;4.248;2022-08-04T15:59:55;33.30;91.10
16301;DHT22;8258;51.020;4.248;2022-08-04T16:02:43;33.60;90.80
16301;DHT22;8258;51.020;4.248;2022-08-04T16:05:32;34.30;90.50
16301;DHT22;8258;51.020;4.248;2022-08-04T16:08:16;34.50;90.50
16301;DHT22;8258;51.020;4.248;2022-08-04T16:10:48;34.50;90.10
16301;DHT22;8258;51.020;4.248;2022-08-04T16:13:17;34.30;90.40
16301;DHT22;8258;51.020;4.248;2022-08-04T16:15:49;33.90;90.70
16301;DHT22;8258;51.020;4.248;2022-08-04T16:18:35;33.50;91.00
16301;DHT22;8258;51.020;4.248;2022-08-04T16:21:04;33.00;91.40
16301;DHT22;8258;51.020;4.248;2022-08-04T16:26:44;31.90;93.00
16301;DHT22;8258;51.020;4.248;2022-08-04T16:29:25;32.00;93.60
16301;DHT22;8258;51.020;4.248;2022-08-04T16:32:11;32.00;93.50
16301;DHT22;8258;51.020;4.248;2022-08-04T16:34:40;31.70;93.50
16301;DHT22;8258;51.020;4.248;2022-08-04T16:37:08;31.40;93.80
16301;DHT22;8258;51.020;4.248;2022-08-04T16:39:36;31.50;93.70
16301;DHT22;8258;51.020;4.248;2022-08-04T16:42:27;31.10;94.00
16301;DHT22;8258;51.020;4.248;2022-08-04T16:44:58;30.40;95.00
16301;DHT22;8258;51.020;4.248;2022-08-04T16:50:27;29.40;97.30
16301;DHT22;8258;51.020;4.248;2022-08-04T16:52:55;29.00;98.40
16301;DHT22;8258;51.020;4.248;2022-08-04T16:55:23;28.90;99.40
16301;DHT22;8258;51.020;4.248;2022-08-04T16:57:51;28.60;99.90
16301;DHT22;8258;51.020;4.248;2022-08-04T17:00:27;28.60;99.90
16301;DHT22;8258;51.020;4.248;2022-08-04T17:02:55;28.50;99.90
16301;DHT22;8258;51.020;4.248;2022-08-04T17:05:23;28.30;99.90
16301;DHT22;8258;51.020;4.248;2022-08-04T17:07:53;28.20;99.90